Time;durP1;ratioP1;P1;durP2;ratioP2;P2;SDS_P1;SDS_P2;PMS_P1;PMS_P2;Temp;Humidity;BMP_temperature;BMP_pressure;BME280_temperature;BME280_humidity;BME280_pressure;Samples;Min_cycle;Max_cycle;Signal;HPM_P1;HPM_P2
2022/06/04 00:00:11;;;;;;;15.13;2.08;;;14.80;99.90;;;;;;4968144;28;20086;-58
2022/06/04 00:02:39;;;;;;;7.88;2.38;;;14.80;99.90;;;;;;4962907;28;20047;-58
2022/06/04 00:05:07;;;;;;;6.95;2.60;;;14.80;99.90;;;;;;4967782;28;20447;-60
2022/06/04 00:07:34;;;;;;;8.13;2.20;;;14.80;99.90;;;;;;4968596;28;20117;-57
2022/06/04 00:15:46;;;;;;;4.20;1.58;;;14.80;99.90;;;;;;4955196;28;20047;-56
2022/06/04 00:18:14;;;;;;;7.88;1.73;;;14.80;99.90;;;;;;4969131;28;20078;-56
2022/06/04 00:20:41;;;;;;;8.82;2.50;;;14.70;99.90;;;;;;4965943;28;20074;-57
2022/06/04 00:23:08;;;;;;;11.43;3.10;;;14.70;99.90;;;;;;4968540;28;20080;-57
2022/06/04 00:25:36;;;;;;;10.13;1.95;;;14.70;99.90;;;;;;4967434;28;20082;-57
2022/06/04 00:28:04;;;;;;;11.55;1.88;;;14.70;99.90;;;;;;4968197;28;20518;-56
2022/06/04 00:30:31;;;;;;;7.88;2.83;;;14.70;99.90;;;;;;4968047;28;20518;-57
2022/06/04 00:32:58;;;;;;;10.65;2.28;;;14.60;99.90;;;;;;4967580;28;20082;-55
2022/06/04 00:35:25;;;;;;;10.07;2.40;;;14.60;99.90;;;;;;4968338;28;20521;-57
2022/06/04 00:37:52;;;;;;;11.20;2.22;;;14.60;99.90;;;;;;4622206;28;10000385;-56
2022/06/04 00:40:47;;;;;;;13.43;2.80;;;14.60;99.90;;;;;;4966836;28;20074;-54
2022/06/04 00:43:14;;;;;;;11.40;1.92;;;14.60;99.90;;;;;;4965859;28;20054;-56
2022/06/04 00:46:14;;;;;;;14.48;3.53;;;14.60;99.90;;;;;;4968297;28;20047;-55
2022/06/04 00:48:41;;;;;;;8.68;2.00;;;14.60;99.90;;;;;;4968024;28;20113;-53
2022/06/04 00:51:08;;;;;;;12.50;2.30;;;14.60;99.90;;;;;;4967979;28;20074;-56
2022/06/04 00:53:35;;;;;;;9.82;2.25;;;14.60;99.90;;;;;;4966639;28;20130;-55
2022/06/04 00:56:09;;;;;;;7.22;2.10;;;14.60;99.90;;;;;;4963522;28;20142;-57
2022/06/04 00:58:37;;;;;;;;;;;14.60;99.90;;;;;;4967964;28;20038;-58
2022/06/04 01:01:22;;;;;;;9.95;2.80;;;14.50;99.90;;;;;;4968416;28;19926;-58
2022/06/04 01:04:05;;;;;;;8.13;2.47;;;14.50;99.90;;;;;;4964235;28;20083;-57
2022/06/04 01:07:02;;;;;;;9.03;2.33;;;14.50;99.90;;;;;;4967418;28;20126;-57
2022/06/04 01:09:50;;;;;;;15.40;2.90;;;14.40;99.90;;;;;;4974859;28;20138;-58
2022/06/04 01:12:27;;;;;;;8.50;2.00;;;14.40;99.90;;;;;;4966264;28;20153;-56
2022/06/04 01:15:00;;;;;;;12.60;2.45;;;14.40;99.90;;;;;;4966873;28;20083;-57
2022/06/04 01:17:58;;;;;;;7.22;1.95;;;14.40;99.90;;;;;;4998686;28;20066;-56
2022/06/04 01:20:45;;;;;;;10.25;2.65;;;14.30;99.90;;;;;;4969070;28;20061;-57
2022/06/04 01:23:27;;;;;;;14.90;2.72;;;14.30;99.90;;;;;;4968533;28;20139;-56
2022/06/04 01:26:25;;;;;;;14.52;2.03;;;14.30;99.90;;;;;;4995385;28;20137;-58
2022/06/04 01:28:57;;;;;;;4.90;2.15;;;14.30;99.90;;;;;;4963423;28;20051;-57
2022/06/04 01:31:34;;;;;;;7.75;2.25;;;14.30;99.90;;;;;;4970856;28;20074;-57
2022/06/04 01:34:02;;;;;;;7.18;1.88;;;14.30;99.90;;;;;;4984338;28;20616;-55
2022/06/04 01:36:40;;;;;;;9.15;1.90;;;14.30;99.90;;;;;;4969875;28;20129;-57
2022/06/04 01:39:13;;;;;;;11.43;3.55;;;14.30;99.90;;;;;;4999350;28;20066;-56
2022/06/04 01:41:47;;;;;;;6.53;2.10;;;14.30;99.90;;;;;;4999811;28;20089;-56
2022/06/04 01:44:19;;;;;;;8.35;2.47;;;14.30;99.90;;;;;;4969690;28;20329;-58
2022/06/04 01:46:48;;;;;;;6.18;2.08;;;14.30;99.90;;;;;;4969397;28;20065;-57
2022/06/04 01:49:21;;;;;;;8.38;2.65;;;14.30;99.90;;;;;;4969461;28;20070;-57
2022/06/04 01:51:48;;;;;;;10.43;2.30;;;14.20;99.90;;;;;;4969364;28;20481;-57
2022/06/04 01:54:31;;;;;;;10.95;2.30;;;14.20;99.90;;;;;;4968847;28;20078;-57
2022/06/04 01:57:00;;;;;;;10.32;1.67;;;14.20;99.90;;;;;;4970267;28;20134;-54
2022/06/04 01:59:43;;;;;;;12.68;2.97;;;14.20;99.90;;;;;;4969281;28;20039;-55
2022/06/04 02:02:13;;;;;;;10.52;2.92;;;14.10;99.90;;;;;;4968930;28;20085;-56
2022/06/04 02:04:41;;;;;;;8.68;2.20;;;14.10;99.90;;;;;;4969307;28;20049;-56
2022/06/04 02:07:31;;;;;;;8.35;2.20;;;14.20;99.90;;;;;;4970469;28;20557;-58
2022/06/04 02:10:15;;;;;;;8.80;2.40;;;14.20;99.90;;;;;;4968471;28;20399;-57
2022/06/04 02:12:43;;;;;;;10.38;2.63;;;14.20;99.90;;;;;;4997329;28;20225;-60
2022/06/04 02:15:14;;;;;;;12.13;3.75;;;14.10;99.90;;;;;;4969270;28;20061;-57
2022/06/04 02:17:43;;;;;;;8.05;2.50;;;14.20;99.90;;;;;;4969206;28;20467;-57
2022/06/04 02:20:10;;;;;;;11.63;3.20;;;14.20;99.90;;;;;;4977912;28;20475;-58
2022/06/04 02:22:37;;;;;;;8.18;2.03;;;14.10;99.90;;;;;;4969978;28;20082;-57
2022/06/04 02:25:06;;;;;;;12.13;1.80;;;14.10;99.90;;;;;;4970007;28;20077;-57
2022/06/04 02:27:32;;;;;;;7.18;2.63;;;14.10;99.90;;;;;;4968420;28;20585;-58
2022/06/04 02:29:59;;;;;;;6.93;2.13;;;14.10;99.90;;;;;;4969540;28;20141;-57
2022/06/04 02:32:45;;;;;;;10.13;2.13;;;14.10;99.90;;;;;;4970086;28;20134;-55
2022/06/04 02:35:40;;;;;;;9.70;2.60;;;14.10;99.90;;;;;;4967624;28;20129;-55
2022/06/04 02:38:19;;;;;;;11.13;1.90;;;14.10;99.90;;;;;;4970079;28;20137;-58
2022/06/04 02:40:53;;;;;;;9.40;2.85;;;14.00;99.90;;;;;;4968373;28;20158;-56
2022/06/04 02:43:22;;;;;;;9.35;2.17;;;14.00;99.90;;;;;;4971255;28;20039;-56
2022/06/04 02:45:58;;;;;;;8.80;2.13;;;14.00;99.90;;;;;;4969334;28;20121;-56
2022/06/04 02:48:30;;;;;;;13.82;2.45;;;13.90;99.90;;;;;;4969814;28;20059;-56
2022/06/04 02:51:15;;;;;;;8.80;2.70;;;13.90;99.90;;;;;;4999572;28;20129;-57
2022/06/04 02:53:42;;;;;;;11.73;2.55;;;13.90;99.90;;;;;;4968235;28;20478;-56
2022/06/04 02:56:11;;;;;;;11.02;2.95;;;13.90;99.90;;;;;;4968964;28;20088;-55
2022/06/04 02:58:39;;;;;;;11.07;2.80;;;13.90;99.90;;;;;;4968121;28;20094;-57
2022/06/04 03:01:08;;;;;;;13.10;3.63;;;13.90;99.90;;;;;;4983412;28;20580;-59
2022/06/04 03:03:36;;;;;;;16.38;3.03;;;13.80;99.90;;;;;;4969415;28;20435;-57
2022/06/04 03:06:04;;;;;;;11.70;3.15;;;13.90;99.90;;;;;;4967723;28;20149;-56
2022/06/04 03:08:32;;;;;;;10.50;3.20;;;13.90;99.90;;;;;;4969558;28;20517;-58
2022/06/04 03:10:59;;;;;;;9.77;2.83;;;13.90;99.90;;;;;;4965934;28;20145;-57
2022/06/04 03:13:26;;;;;;;11.48;2.95;;;13.90;99.90;;;;;;4968491;28;20051;-57
2022/06/04 03:15:53;;;;;;;13.63;2.90;;;13.90;99.90;;;;;;4969333;28;20383;-58
2022/06/04 03:18:20;;;;;;;13.05;3.40;;;13.90;99.90;;;;;;4968838;28;20051;-58
2022/06/04 03:20:47;;;;;;;12.93;2.97;;;13.90;99.90;;;;;;4969262;28;20094;-58
2022/06/04 03:23:15;;;;;;;14.85;3.58;;;13.90;99.90;;;;;;4968780;28;20050;-59
2022/06/04 03:25:42;;;;;;;18.98;2.80;;;13.90;99.90;;;;;;4968745;28;20141;-58
2022/06/04 03:28:08;;;;;;;15.10;3.95;;;13.90;99.90;;;;;;4968644;28;20046;-58
2022/06/04 03:30:35;;;;;;;8.98;2.90;;;13.80;99.90;;;;;;4968306;28;20126;-57
2022/06/04 03:33:03;;;;;;;13.43;3.30;;;13.80;99.90;;;;;;4968649;28;20133;-57
2022/06/04 03:35:29;;;;;;;11.35;2.80;;;13.80;99.90;;;;;;4968976;28;20126;-55
2022/06/04 03:37:56;;;;;;;11.85;4.30;;;13.80;99.90;;;;;;4968330;28;20073;-57
2022/06/04 03:40:23;;;;;;;10.38;2.78;;;13.80;99.90;;;;;;4968179;28;20055;-56
2022/06/04 03:42:49;;;;;;;8.40;2.67;;;13.80;99.90;;;;;;4965322;28;20043;-54
2022/06/04 03:45:16;;;;;;;10.50;3.25;;;13.80;99.90;;;;;;4968686;28;20043;-55
2022/06/04 03:47:43;;;;;;;8.85;2.47;;;13.80;99.90;;;;;;4968620;28;20079;-56
2022/06/04 03:50:15;;;;;;;13.15;2.67;;;13.80;99.90;;;;;;4965950;28;20528;-56
2022/06/04 03:52:42;;;;;;;13.88;3.05;;;13.80;99.90;;;;;;4968129;28;20089;-57
2022/06/04 03:55:09;;;;;;;16.83;4.15;;;13.80;99.90;;;;;;4968783;28;20336;-58
2022/06/04 04:00:16;;;;;;;13.60;3.22;;;13.80;99.90;;;;;;4965829;28;20129;-56
2022/06/04 04:02:46;;;;;;;13.90;4.00;;;13.80;99.90;;;;;;4964726;28;20082;-57
2022/06/04 04:05:14;;;;;;;15.70;4.05;;;13.80;99.90;;;;;;4966434;28;20043;-57
2022/06/04 04:07:41;;;;;;;11.40;3.15;;;13.90;99.90;;;;;;4968310;28;20138;-55
2022/06/04 04:10:08;;;;;;;12.38;3.42;;;13.80;99.90;;;;;;4983013;28;20050;-57
2022/06/04 04:12:35;;;;;;;9.23;2.40;;;13.80;99.90;;;;;;4968471;28;20236;-59
2022/06/04 04:15:02;;;;;;;7.38;2.88;;;13.80;99.90;;;;;;4967846;28;20080;-55
2022/06/04 04:17:30;;;;;;;8.80;2.80;;;13.80;99.90;;;;;;4968077;28;20081;-57
2022/06/04 04:19:57;;;;;;;12.57;3.33;;;13.80;99.90;;;;;;4968261;28;20106;-57
2022/06/04 04:22:24;;;;;;;13.48;3.22;;;13.90;99.90;;;;;;4967376;28;20058;-57
2022/06/04 04:24:51;;;;;;;22.73;4.55;;;13.80;99.90;;;;;;4967884;28;20128;-57
2022/06/04 04:27:18;;;;;;;17.90;2.83;;;13.80;99.90;;;;;;4967984;28;20109;-56
2022/06/04 04:29:45;;;;;;;7.22;2.88;;;13.90;99.90;;;;;;4968056;28;20451;-58
2022/06/04 04:32:11;;;;;;;10.88;3.72;;;13.80;99.90;;;;;;4967914;28;20522;-58
2022/06/04 04:34:38;;;;;;;9.00;2.88;;;13.90;99.90;;;;;;4968075;28;20074;-55
2022/06/04 04:37:05;;;;;;;11.85;3.38;;;13.90;99.90;;;;;;4996044;28;20051;-55
2022/06/04 04:39:32;;;;;;;7.97;3.15;;;13.90;99.90;;;;;;4967387;28;20626;-57
2022/06/04 04:41:59;;;;;;;14.05;3.78;;;13.90;99.90;;;;;;4967108;28;20039;-54
2022/06/04 04:44:25;;;;;;;10.40;3.08;;;13.90;99.90;;;;;;4963979;28;20131;-56
2022/06/04 04:46:52;;;;;;;10.90;3.97;;;13.90;99.90;;;;;;4968339;28;20185;-57
2022/06/04 04:49:19;;;;;;;14.80;3.35;;;13.80;99.90;;;;;;4966782;28;20082;-54
2022/06/04 04:51:47;;;;;;;9.57;3.13;;;13.80;99.90;;;;;;4968343;28;20078;-55
2022/06/04 04:54:14;;;;;;;9.25;3.33;;;13.80;99.90;;;;;;4972175;28;20058;-54
2022/06/04 04:56:41;;;;;;;12.38;3.38;;;13.80;99.90;;;;;;4971444;28;20094;-57
2022/06/04 04:59:08;;;;;;;12.05;3.40;;;13.80;99.90;;;;;;4971483;28;20070;-53
2022/06/04 05:01:35;;;;;;;10.27;3.63;;;13.70;99.90;;;;;;4971895;28;20090;-56
2022/06/04 05:04:02;;;;;;;19.08;3.65;;;13.70;99.90;;;;;;4970233;28;20197;-56
2022/06/04 05:06:29;;;;;;;12.82;3.40;;;13.70;99.90;;;;;;4986481;28;20529;-55
2022/06/04 05:08:56;;;;;;;17.70;2.83;;;13.70;99.90;;;;;;4971501;28;20133;-56
2022/06/04 05:11:27;;;;;;;17.55;4.93;;;13.70;99.90;;;;;;4971037;28;20093;-57
2022/06/04 05:13:54;;;;;;;15.90;4.38;;;13.70;99.90;;;;;;4971466;28;20192;-53
2022/06/04 05:16:23;;;;;;;16.00;3.90;;;13.70;99.90;;;;;;4970104;28;20078;-56
2022/06/04 05:18:50;;;;;;;12.43;3.25;;;13.70;99.90;;;;;;4971601;28;20090;-57
2022/06/04 05:21:21;;;;;;;7.90;2.83;;;13.70;99.90;;;;;;4971559;28;20074;-57
2022/06/04 05:23:49;;;;;;;11.65;3.40;;;13.70;99.90;;;;;;4986355;28;20082;-55
2022/06/04 05:26:16;;;;;;;11.13;3.55;;;13.70;99.90;;;;;;4968258;28;20043;-56
2022/06/04 05:28:43;;;;;;;17.23;4.70;;;13.70;99.90;;;;;;4970183;28;20050;-56
2022/06/04 05:31:10;;;;;;;13.52;3.90;;;13.70;99.90;;;;;;4971026;28;20039;-55
2022/06/04 05:33:36;;;;;;;11.48;3.28;;;13.70;99.90;;;;;;4969721;28;20490;-57
2022/06/04 05:36:03;;;;;;;8.10;2.33;;;13.70;99.90;;;;;;4971096;28;20145;-57
2022/06/04 05:38:34;;;;;;;9.20;2.78;;;13.70;99.90;;;;;;4970898;28;20410;-58
2022/06/04 05:41:03;;;;;;;12.45;3.13;;;13.70;99.90;;;;;;4970650;28;20043;-55
2022/06/04 05:43:30;;;;;;;10.38;2.85;;;13.70;99.90;;;;;;4968119;28;20089;-57
2022/06/04 05:46:00;;;;;;;20.23;3.35;;;13.70;99.90;;;;;;4968103;28;20134;-56
2022/06/04 05:48:27;;;;;;;13.27;2.60;;;13.70;99.90;;;;;;4970513;28;20565;-56
2022/06/04 05:50:55;;;;;;;14.60;2.90;;;13.70;99.90;;;;;;4970787;28;20086;-56
2022/06/04 05:53:22;;;;;;;10.38;3.72;;;13.70;99.90;;;;;;4970390;28;20067;-54
2022/06/04 05:55:49;;;;;;;12.82;2.80;;;13.70;99.90;;;;;;4970432;28;20105;-56
2022/06/04 05:58:16;;;;;;;19.55;3.63;;;13.70;99.90;;;;;;4970602;28;20082;-57
2022/06/04 06:00:43;;;;;;;22.70;4.30;;;13.80;99.90;;;;;;4970581;28;20138;-57
2022/06/04 06:03:10;;;;;;;9.88;2.83;;;13.90;99.90;;;;;;4969780;28;20047;-57
2022/06/04 06:05:44;;;;;;;12.10;2.75;;;13.90;99.90;;;;;;4970365;28;20122;-58
2022/06/04 06:08:11;;;;;;;14.73;4.40;;;13.90;99.90;;;;;;4970105;28;20138;-58
2022/06/04 06:10:44;;;;;;;18.58;5.47;;;13.90;99.90;;;;;;4970082;28;20486;-57
2022/06/04 06:13:11;;;;;;;16.20;2.90;;;13.90;99.90;;;;;;4970203;28;20097;-57
2022/06/04 06:15:38;;;;;;;10.18;3.63;;;14.00;99.90;;;;;;4970708;28;20497;-58
2022/06/04 06:18:06;;;;;;;9.65;3.95;;;14.00;99.90;;;;;;4969865;28;20441;-56
2022/06/04 06:20:33;;;;;;;13.75;4.30;;;14.00;99.90;;;;;;4970706;28;20137;-57
2022/06/04 06:22:59;;;;;;;13.65;3.08;;;14.00;99.90;;;;;;4966163;28;20047;-56
2022/06/04 06:25:26;;;;;;;10.27;2.92;;;14.00;99.90;;;;;;4970051;28;20054;-58
2022/06/04 06:27:53;;;;;;;16.25;3.45;;;14.10;99.90;;;;;;4970467;28;20046;-56
2022/06/04 06:30:20;;;;;;;7.70;2.83;;;14.10;99.90;;;;;;4970117;28;20101;-57
2022/06/04 06:32:47;;;;;;;14.00;3.35;;;14.10;99.90;;;;;;4969800;28;20480;-57
2022/06/04 06:35:13;;;;;;;14.93;2.75;;;14.10;99.90;;;;;;4966628;28;20166;-58
2022/06/04 06:37:40;;;;;;;14.32;3.13;;;14.20;99.90;;;;;;4969703;28;20498;-56
2022/06/04 06:40:08;;;;;;;14.55;3.17;;;14.20;99.90;;;;;;4969489;28;20475;-55
2022/06/04 06:42:34;;;;;;;9.88;2.67;;;14.10;99.90;;;;;;4969672;28;20047;-57
2022/06/04 06:45:01;;;;;;;17.90;3.25;;;14.10;99.90;;;;;;4969653;28;20098;-58
2022/06/04 06:47:28;;;;;;;15.38;3.63;;;14.10;99.90;;;;;;4969085;28;20506;-56
2022/06/04 06:49:55;;;;;;;20.65;3.78;;;14.00;99.90;;;;;;4969784;28;20125;-57
2022/06/04 06:52:21;;;;;;;8.63;2.92;;;14.10;99.90;;;;;;4969648;28;20485;-56
2022/06/04 06:54:48;;;;;;;12.73;4.75;;;14.00;99.90;;;;;;4969588;28;20479;-58
2022/06/04 06:57:16;;;;;;;11.50;3.35;;;14.10;99.90;;;;;;4969532;28;20090;-58
2022/06/04 06:59:45;;;;;;;15.48;4.28;;;14.10;99.90;;;;;;4969230;28;20074;-54
2022/06/04 07:02:12;;;;;;;15.90;5.65;;;14.00;99.90;;;;;;4970054;28;20569;-56
2022/06/04 07:04:39;;;;;;;12.93;4.55;;;14.00;99.90;;;;;;4969122;28;20042;-55
2022/06/04 07:07:06;;;;;;;10.65;3.60;;;13.90;99.90;;;;;;4969626;28;20138;-60
2022/06/04 07:09:35;;;;;;;22.92;3.78;;;13.80;99.90;;;;;;4969433;28;20292;-57
2022/06/04 07:12:02;;;;;;;13.38;4.65;;;13.80;99.90;;;;;;4968627;28;20059;-58
2022/06/04 07:14:29;;;;;;;15.10;4.05;;;13.80;99.90;;;;;;4968152;28;20217;-60
2022/06/04 07:16:57;;;;;;;13.07;4.30;;;13.90;99.90;;;;;;4968586;28;20513;-55
2022/06/04 07:19:24;;;;;;;14.93;3.42;;;13.80;99.90;;;;;;4994392;28;20154;-58
2022/06/04 07:21:51;;;;;;;18.35;4.50;;;13.80;99.90;;;;;;4968443;28;20093;-58
2022/06/04 07:24:18;;;;;;;18.10;4.10;;;13.80;99.90;;;;;;4968810;28;20128;-57
2022/06/04 07:26:45;;;;;;;14.05;4.25;;;13.90;99.90;;;;;;4968150;28;20054;-56
2022/06/04 07:29:12;;;;;;;12.00;3.70;;;13.90;99.90;;;;;;4968494;28;20470;-58
2022/06/04 07:31:39;;;;;;;9.95;3.55;;;13.90;99.90;;;;;;4968609;28;20133;-55
2022/06/04 07:34:06;;;;;;;17.58;3.70;;;13.90;99.90;;;;;;4968676;28;20133;-56
2022/06/04 07:36:36;;;;;;;22.80;6.25;;;13.90;99.90;;;;;;4968998;28;20093;-56
2022/06/04 07:39:04;;;;;;;13.18;4.57;;;13.90;99.90;;;;;;4968506;28;20133;-55
2022/06/04 07:41:33;;;;;;;13.52;3.35;;;13.90;99.90;;;;;;4968634;28;20070;-57
2022/06/04 07:44:00;;;;;;;15.70;3.40;;;14.00;99.90;;;;;;4968390;28;20472;-57
2022/06/04 07:46:27;;;;;;;14.90;4.13;;;14.00;99.90;;;;;;4968620;28;20501;-57
2022/06/04 07:48:55;;;;;;;11.88;4.25;;;14.10;99.90;;;;;;4969093;28;20051;-59
2022/06/04 07:51:22;;;;;;;9.55;3.67;;;14.10;99.90;;;;;;4968456;28;20524;-57
2022/06/04 07:53:49;;;;;;;15.60;4.05;;;14.10;99.90;;;;;;4968649;28;20113;-57
2022/06/04 07:56:16;;;;;;;14.93;4.32;;;14.20;99.90;;;;;;4966880;28;20128;-57
2022/06/04 07:58:44;;;;;;;14.35;4.03;;;14.20;99.90;;;;;;4968251;28;20517;-56
2022/06/04 08:01:14;;;;;;;11.77;4.75;;;14.20;99.90;;;;;;4967648;28;20070;-57
2022/06/04 08:03:42;;;;;;;19.80;4.38;;;14.30;99.90;;;;;;4622117;28;10000325;-56
2022/06/04 08:06:10;;;;;;;21.90;4.55;;;14.30;99.90;;;;;;4964644;28;20121;-57
2022/06/04 08:08:37;;;;;;;12.70;3.28;;;14.30;99.90;;;;;;4964624;28;20053;-53
2022/06/04 08:13:49;;;;;;;17.02;4.25;;;14.30;99.90;;;;;;4964009;28;20055;-58
2022/06/04 08:16:16;;;;;;;12.48;4.28;;;14.30;99.90;;;;;;4963795;28;20131;-58
2022/06/04 08:18:43;;;;;;;15.73;3.47;;;14.30;99.90;;;;;;4964865;28;20568;-56
2022/06/04 08:21:10;;;;;;;20.85;4.63;;;14.40;99.90;;;;;;4964874;28;20050;-57
2022/06/04 08:23:39;;;;;;;12.05;4.32;;;14.50;99.90;;;;;;4965614;28;20128;-56
2022/06/04 08:26:09;;;;;;;17.77;5.95;;;14.50;99.90;;;;;;4966052;28;20057;-58
2022/06/04 08:28:36;;;;;;;15.13;4.13;;;14.60;99.90;;;;;;4968184;28;20382;-59
2022/06/04 08:31:05;;;;;;;12.30;3.78;;;14.60;99.90;;;;;;4967802;28;20218;-57
2022/06/04 08:33:32;;;;;;;16.75;4.13;;;14.60;99.90;;;;;;4968651;28;20391;-56
2022/06/04 08:35:59;;;;;;;11.95;4.32;;;14.60;99.90;;;;;;4968642;28;20133;-56
2022/06/04 08:38:26;;;;;;;12.57;4.03;;;14.50;99.90;;;;;;4968816;28;20058;-57
2022/06/04 08:40:57;;;;;;;15.25;3.53;;;14.50;99.90;;;;;;4968007;28;20133;-56
2022/06/04 08:43:25;;;;;;;14.82;6.07;;;14.60;99.90;;;;;;4967685;28;20466;-59
2022/06/04 08:45:52;;;;;;;15.98;5.20;;;14.60;99.90;;;;;;4968661;28;20549;-58
2022/06/04 08:48:32;;;;;;;10.65;3.88;;;14.50;99.90;;;;;;4967443;28;20070;-57
2022/06/04 08:50:58;;;;;;;10.18;3.40;;;14.50;99.90;;;;;;4968194;28;20082;-56
2022/06/04 08:53:27;;;;;;;12.30;3.75;;;14.50;99.90;;;;;;4968366;28;20081;-57
2022/06/04 08:59:06;;;;;;;16.90;3.88;;;14.50;99.90;;;;;;4967468;28;20137;-55
2022/06/04 09:01:37;;;;;;;14.10;3.33;;;14.50;99.90;;;;;;4966061;28;20070;-57
2022/06/04 09:04:35;;;;;;;8.98;3.08;;;14.50;99.90;;;;;;4966286;28;20784;-56
2022/06/04 09:07:08;;;;;;;11.95;3.55;;;14.50;99.90;;;;;;4968071;28;20113;-56
2022/06/04 09:09:44;;;;;;;13.23;3.92;;;14.50;99.90;;;;;;4968452;28;20049;-54
2022/06/04 09:12:22;;;;;;;23.95;5.93;;;14.50;99.90;;;;;;4964437;28;20129;-57
2022/06/04 09:14:51;;;;;;;10.57;3.72;;;14.60;99.90;;;;;;4966844;28;20055;-56
2022/06/04 09:17:50;;;;;;;17.20;3.30;;;14.50;99.90;;;;;;4999314;28;20133;-57
2022/06/04 09:20:20;;;;;;;13.82;3.92;;;14.60;99.90;;;;;;4968592;28;20050;-57
2022/06/04 09:22:47;;;;;;;11.57;3.67;;;14.70;99.90;;;;;;4969329;28;20047;-56
2022/06/04 09:25:15;;;;;;;11.35;3.08;;;14.80;99.90;;;;;;4969136;28;20078;-56
2022/06/04 09:27:58;;;;;;;16.27;3.58;;;14.80;99.90;;;;;;4971604;28;20042;-55
2022/06/04 09:30:35;;;;;;;14.95;3.88;;;15.00;99.90;;;;;;4970184;28;20133;-56
2022/06/04 09:33:02;;;;;;;10.15;2.90;;;15.10;99.90;;;;;;4979929;28;20145;-55
2022/06/04 09:35:32;;;;;;;14.20;4.40;;;15.20;99.90;;;;;;4967688;28;20142;-53
2022/06/04 09:37:59;;;;;;;11.77;2.90;;;15.30;99.90;;;;;;4965317;28;20089;-54
2022/06/04 09:40:29;;;;;;;12.07;3.30;;;15.50;99.90;;;;;;4966930;28;20046;-52
2022/06/04 09:43:24;;;;;;;10.77;3.28;;;15.60;99.90;;;;;;4967517;28;20077;-56
2022/06/04 09:46:04;;;;;;;9.70;2.75;;;15.80;99.90;;;;;;4962864;28;20055;-56
2022/06/04 09:48:32;;;;;;;14.10;3.22;;;15.90;99.90;;;;;;4996571;28;20056;-55
2022/06/04 09:51:05;;;;;;;8.20;3.35;;;16.10;99.90;;;;;;4981180;28;20146;-54
2022/06/04 09:53:33;;;;;;;12.25;3.85;;;16.20;99.90;;;;;;4967314;28;20066;-55
2022/06/04 09:56:06;;;;;;;21.98;4.43;;;16.30;99.90;;;;;;4966110;28;20055;-55
2022/06/04 09:58:37;;;;;;;16.15;3.28;;;16.40;99.90;;;;;;4967596;28;20086;-59
2022/06/04 10:01:14;;;;;;;13.25;3.15;;;16.40;99.90;;;;;;4966070;28;20137;-55
2022/06/04 10:03:41;;;;;;;11.30;2.95;;;16.40;99.90;;;;;;4966395;28;20530;-55
2022/06/04 10:06:15;;;;;;;9.88;3.67;;;16.50;99.90;;;;;;4962883;28;20050;-55
2022/06/04 10:11:56;;;;;;;17.45;4.75;;;16.80;99.90;;;;;;4965581;28;20130;-56
2022/06/04 10:14:29;;;;;;;;;;;17.10;99.90;;;;;;4967515;28;20074;-55
2022/06/04 10:16:56;;;;;;;15.07;3.63;;;17.20;99.90;;;;;;4966514;28;20308;-56
2022/06/04 10:19:23;;;;;;;10.43;2.85;;;17.40;99.90;;;;;;4966875;28;20082;-56
2022/06/04 10:22:04;;;;;;;11.73;2.97;;;17.60;99.90;;;;;;4966620;28;20086;-56
2022/06/04 10:24:49;;;;;;;9.02;2.80;;;17.70;99.90;;;;;;4963236;28;20050;-55
2022/06/04 10:27:35;;;;;;;14.57;2.58;;;17.90;99.90;;;;;;4962602;28;20046;-55
2022/06/04 10:30:24;;;;;;;9.57;2.70;;;18.10;99.90;;;;;;4966478;28;20648;-57
2022/06/04 10:33:06;;;;;;;10.63;2.40;;;18.40;99.90;;;;;;4964537;28;20086;-55
2022/06/04 10:35:43;;;;;;;18.75;3.58;;;18.40;99.90;;;;;;4963418;28;20096;-57
2022/06/04 10:38:33;;;;;;;15.63;2.72;;;18.30;99.90;;;;;;4965346;28;20140;-55
2022/06/04 10:41:10;;;;;;;14.55;3.13;;;18.00;99.90;;;;;;4966293;28;20054;-54
2022/06/04 10:44:11;;;;;;;14.52;4.13;;;18.20;99.90;;;;;;4965111;28;20537;-59
2022/06/04 10:46:56;;;;;;;8.50;2.60;;;18.40;99.90;;;;;;4994524;28;20089;-56
2022/06/04 10:49:45;;;;;;;11.40;2.80;;;18.50;99.90;;;;;;4963499;28;20166;-55
2022/06/04 10:52:43;;;;;;;12.80;2.65;;;18.30;99.90;;;;;;4991306;28;20573;-54
2022/06/04 10:55:41;;;;;;;14.40;3.20;;;18.20;99.90;;;;;;4988102;28;20070;-54
2022/06/04 10:58:40;;;;;;;9.55;2.65;;;18.20;99.90;;;;;;4964303;28;20154;-55
2022/06/04 11:01:25;;;;;;;6.38;2.63;;;18.30;99.90;;;;;;4964332;28;20405;-55
2022/06/04 11:04:33;;;;;;;7.78;2.70;;;18.30;99.90;;;;;;4992560;28;20058;-54
2022/06/04 11:07:11;;;;;;;7.95;2.85;;;18.50;99.90;;;;;;4964763;28;20095;-54
2022/06/04 11:09:39;;;;;;;9.07;2.92;;;18.40;99.90;;;;;;4964926;28;20093;-56
2022/06/04 11:12:14;;;;;;;8.10;2.72;;;18.40;99.90;;;;;;4963177;28;20058;-55
2022/06/04 11:14:46;;;;;;;8.32;2.80;;;18.40;99.90;;;;;;4961402;28;20150;-56
2022/06/04 11:17:27;;;;;;;9.80;2.67;;;18.40;99.90;;;;;;4995258;28;20051;-55
2022/06/04 11:19:59;;;;;;;;;;;18.50;99.90;;;;;;4963905;28;20146;-56
2022/06/04 11:22:35;;;;;;;9.65;2.22;;;18.50;99.90;;;;;;4965735;28;20381;-52
2022/06/04 11:25:24;;;;;;;9.13;2.67;;;18.60;99.90;;;;;;4963494;28;20157;-57
2022/06/04 11:27:54;;;;;;;10.40;2.75;;;18.60;99.90;;;;;;4965629;28;20050;-55
2022/06/04 11:30:59;;;;;;;14.05;3.25;;;18.70;99.90;;;;;;4965653;28;20138;-54
2022/06/04 11:33:40;;;;;;;;;;;18.60;98.20;;;;;;4965795;28;20140;-56
2022/06/04 11:36:28;;;;;;;6.70;2.40;;;18.40;98.60;;;;;;4965888;28;19978;-57
2022/06/04 11:39:33;;;;;;;10.60;2.97;;;18.40;99.00;;;;;;4957122;28;20457;-53
2022/06/04 11:42:06;;;;;;;;;;;18.40;98.80;;;;;;4965369;28;20106;-55
2022/06/04 11:44:55;;;;;;;11.65;2.53;;;18.50;99.20;;;;;;4965491;28;20008;-53
2022/06/04 11:48:04;;;;;;;14.35;2.95;;;18.60;99.90;;;;;;4985485;28;20117;-51
2022/06/04 11:50:46;;;;;;;11.57;2.47;;;18.80;99.40;;;;;;4964717;28;20083;-57
2022/06/04 11:53:37;;;;;;;12.82;2.50;;;18.90;99.20;;;;;;4961811;28;20116;-57
2022/06/04 11:56:28;;;;;;;12.93;2.92;;;19.00;98.50;;;;;;4965273;28;20047;-55
2022/06/04 11:59:24;;;;;;;10.75;2.65;;;19.00;99.60;;;;;;4960943;28;20133;-53
2022/06/04 12:01:55;;;;;;;7.35;2.90;;;18.90;99.80;;;;;;4947084;28;20237;-55
2022/06/04 12:04:33;;;;;;;6.05;2.53;;;18.80;98.90;;;;;;4963013;28;20129;-53
2022/06/04 12:07:20;;;;;;;6.55;2.70;;;18.60;98.70;;;;;;4963868;28;20141;-59
2022/06/04 12:10:10;;;;;;;4.68;2.60;;;18.80;99.40;;;;;;4963803;28;20117;-55
2022/06/04 12:13:00;;;;;;;12.98;2.97;;;18.90;99.40;;;;;;4963260;28;20093;-55
2022/06/04 12:15:41;;;;;;;9.57;2.50;;;19.00;98.60;;;;;;4964660;28;20462;-50
2022/06/04 12:18:33;;;;;;;10.13;2.40;;;19.10;98.90;;;;;;4995191;28;20073;-56
2022/06/04 12:26:41;;;;;;;12.88;2.92;;;19.30;98.30;;;;;;4963455;28;20131;-54
2022/06/04 12:29:31;;;;;;;12.82;2.80;;;19.40;99.20;;;;;;4960000;28;20609;-56
2022/06/04 12:32:01;;;;;;;9.88;2.88;;;19.30;98.30;;;;;;4963419;28;20047;-56
2022/06/04 12:34:37;;;;;;;11.63;3.17;;;19.40;99.10;;;;;;4963291;28;20497;-54
2022/06/04 12:37:32;;;;;;;10.98;3.42;;;19.40;98.70;;;;;;4968727;28;20502;-54
2022/06/04 12:40:24;;;;;;;9.65;2.97;;;19.40;98.50;;;;;;4962837;28;20137;-55
2022/06/04 12:43:18;;;;;;;11.27;3.15;;;19.40;98.70;;;;;;4964995;28;20047;-50
2022/06/04 12:45:47;;;;;;;12.50;2.67;;;19.40;98.90;;;;;;4964171;28;20510;-49
2022/06/04 12:48:32;;;;;;;14.68;2.97;;;19.30;99.30;;;;;;4963950;28;20046;-53
2022/06/04 12:51:03;;;;;;;13.73;3.95;;;19.30;98.30;;;;;;4964090;28;20082;-53
2022/06/04 12:53:31;;;;;;;11.60;3.40;;;19.30;99.30;;;;;;4964192;28;20051;-54
2022/06/04 12:56:01;;;;;;;9.88;2.95;;;19.30;99.40;;;;;;4963975;28;20145;-57
2022/06/04 12:58:34;;;;;;;12.88;2.65;;;19.40;99.50;;;;;;4960694;28;20061;-56
2022/06/04 13:01:41;;;;;;;14.27;3.13;;;19.40;98.10;;;;;;4964868;28;20051;-53
2022/06/04 13:04:11;;;;;;;6.53;2.30;;;19.40;98.10;;;;;;4958156;28;20051;-55
2022/06/04 13:07:00;;;;;;;12.77;3.17;;;19.50;98.50;;;;;;4961923;28;20135;-55
2022/06/04 13:09:48;;;;;;;8.85;2.95;;;19.60;99.10;;;;;;4995171;28;20134;-53
2022/06/04 13:12:45;;;;;;;8.85;2.90;;;19.60;98.30;;;;;;4957425;28;20125;-56
2022/06/04 13:15:44;;;;;;;12.20;4.00;;;19.70;97.40;;;;;;4966415;28;20235;-53
2022/06/04 13:18:26;;;;;;;12.68;3.90;;;19.60;97.80;;;;;;4966078;28;20720;-55
2022/06/04 13:20:57;;;;;;;11.50;3.17;;;19.80;98.30;;;;;;4965967;28;20130;-56
2022/06/04 13:23:42;;;;;;;15.85;3.40;;;19.80;97.90;;;;;;4966800;28;20078;-53
2022/06/04 13:26:23;;;;;;;15.00;2.80;;;19.80;96.80;;;;;;4958425;28;20079;-56
2022/06/04 13:28:50;;;;;;;13.57;3.15;;;19.80;97.30;;;;;;4967817;28;20046;-56
2022/06/04 13:31:33;;;;;;;12.02;3.17;;;19.90;98.30;;;;;;4967803;28;20046;-56
2022/06/04 13:34:12;;;;;;;9.27;3.17;;;20.10;97.20;;;;;;4967804;28;20054;-57